createdAt,value
2023-04-28T00:00:58.412Z,100656.00
2023-04-28T00:02:30.367Z,100661.00
2023-04-28T00:04:02.619Z,100662.60
2023-04-28T00:05:34.745Z,100660.60
2023-04-28T00:07:06.865Z,100658.60
2023-04-28T00:08:38.618Z,100659.00
2023-04-28T00:10:10.646Z,100657.80
2023-04-28T00:11:46.080Z,100651.80
2023-04-28T00:13:17.831Z,100650.20
2023-04-28T00:14:49.545Z,100647.00
2023-04-28T00:16:21.307Z,100635.00
2023-04-28T00:17:53.529Z,100637.00
2023-04-28T00:19:25.825Z,100639.80
2023-04-28T00:20:57.598Z,100641.40
2023-04-28T00:22:30.004Z,100638.00
2023-04-28T00:24:01.751Z,100637.00
2023-04-28T00:25:33.509Z,100632.20
2023-04-28T00:27:05.646Z,100628.40
2023-04-28T00:28:37.379Z,100623.80
2023-04-28T00:30:09.958Z,100625.40
2023-04-28T00:31:41.777Z,100620.00
2023-04-28T00:33:14.197Z,100622.20
2023-04-28T00:34:46.058Z,100618.40
2023-04-28T00:36:17.794Z,100619.20
2023-04-28T00:37:49.632Z,100617.80
2023-04-28T00:39:23.140Z,100617.80
2023-04-28T00:40:54.962Z,100616.60
2023-04-28T00:42:27.000Z,100609.60
2023-04-28T00:43:58.774Z,100606.40
2023-04-28T00:45:30.920Z,100607.00
2023-04-28T00:47:02.911Z,100604.40
2023-04-28T00:48:34.660Z,100601.60
2023-04-28T00:50:07.092Z,100600.20
2023-04-28T00:51:38.910Z,100598.40
2023-04-28T00:53:12.515Z,100602.00
2023-04-28T00:54:44.381Z,100600.80
2023-04-28T00:56:17.114Z,100599.60
2023-04-28T00:57:49.039Z,100597.20
2023-04-28T00:59:20.824Z,100598.00
2023-04-28T01:00:53.232Z,100592.20
2023-04-28T01:02:26.946Z,100591.00
2023-04-28T01:05:45.008Z,100587.20
2023-04-28T01:07:16.891Z,100585.60
2023-04-28T01:08:53.519Z,100584.80
2023-04-28T01:10:25.482Z,100586.00
2023-04-28T01:11:58.466Z,100590.00
2023-04-28T01:13:52.740Z,100590.60
2023-04-28T01:15:24.769Z,100593.20
2023-04-28T01:16:59.242Z,100592.60
2023-04-28T01:18:32.656Z,100595.20
2023-04-28T01:20:05.474Z,100596.20
2023-04-28T01:21:37.374Z,100596.60
2023-04-28T01:23:23.261Z,100595.40
2023-04-28T01:24:55.202Z,100593.40
2023-04-28T01:26:28.114Z,100592.00
2023-04-28T01:27:59.906Z,100589.80
2023-04-28T01:29:32.815Z,100584.40
2023-04-28T01:31:04.652Z,100589.40
2023-04-28T01:32:36.579Z,100575.80
2023-04-28T01:34:08.387Z,100576.40
2023-04-28T01:35:41.299Z,100577.40
2023-04-28T01:37:13.080Z,100574.20
2023-04-28T01:38:44.804Z,100576.20
2023-04-28T01:40:18.193Z,100576.80
2023-04-28T01:41:49.969Z,100572.00
2023-04-28T01:43:21.666Z,100567.00
2023-04-28T01:44:53.446Z,100560.60
2023-04-28T01:46:25.380Z,100557.60
2023-04-28T01:47:57.169Z,100555.60
2023-04-28T01:49:28.998Z,100558.60
2023-04-28T01:51:00.904Z,100560.00
2023-04-28T01:52:32.656Z,100560.00
2023-04-28T01:54:04.649Z,100567.00
2023-04-28T01:56:51.704Z,100562.40
2023-04-28T01:58:24.901Z,100563.40
2023-04-28T01:59:56.789Z,100567.80
2023-04-28T02:01:28.880Z,100570.60
2023-04-28T02:03:00.758Z,100574.00
2023-04-28T02:04:32.664Z,100571.80
2023-04-28T02:06:05.368Z,100573.40
2023-04-28T02:07:37.039Z,100570.00
2023-04-28T02:09:08.830Z,100571.20
2023-04-28T02:10:40.615Z,100568.00
2023-04-28T02:12:12.290Z,100563.80
2023-04-28T02:13:43.962Z,100560.00
2023-04-28T02:15:16.993Z,100558.40
2023-04-28T02:16:48.767Z,100554.20
2023-04-28T02:18:20.478Z,100552.80
2023-04-28T02:19:56.832Z,100547.60
2023-04-28T02:21:28.628Z,100546.20
2023-04-28T02:23:00.334Z,100548.40
2023-04-28T02:24:37.042Z,100549.40
2023-04-28T02:26:08.830Z,100547.40
2023-04-28T02:27:41.460Z,100547.60
2023-04-28T02:29:13.218Z,100543.80
2023-04-28T02:30:44.889Z,100545.80
2023-04-28T02:32:16.730Z,100542.80
2023-04-28T02:33:48.769Z,100539.40
2023-04-28T02:35:20.550Z,100541.00
2023-04-28T02:36:52.294Z,100539.20
2023-04-28T02:38:24.021Z,100537.40
2023-04-28T02:39:55.735Z,100538.60
2023-04-28T02:41:27.897Z,100539.20
2023-04-28T02:42:59.672Z,100534.00
2023-04-28T02:44:31.558Z,100531.20
2023-04-28T02:46:04.895Z,100529.60
2023-04-28T02:47:37.049Z,100533.60
2023-04-28T02:49:08.863Z,100532.80
2023-04-28T02:50:40.673Z,100535.20
2023-04-28T02:52:12.557Z,100534.20
2023-04-28T02:53:44.437Z,100537.20
2023-04-28T02:55:23.758Z,100534.20
2023-04-28T02:56:57.347Z,100532.80
2023-04-28T02:58:29.204Z,100528.80
2023-04-28T03:00:01.122Z,100525.60
2023-04-28T03:01:35.678Z,100527.20
2023-04-28T03:03:07.676Z,100533.80
2023-04-28T03:04:39.490Z,100528.60
2023-04-28T03:06:11.417Z,100529.80
2023-04-28T03:07:43.182Z,100528.80
2023-04-28T03:09:16.281Z,100526.00
2023-04-28T03:10:48.028Z,100519.60
2023-04-28T03:12:19.734Z,100525.20
2023-04-28T03:13:51.640Z,100522.80
2023-04-28T03:15:23.613Z,100526.20
2023-04-28T03:16:55.719Z,100517.40
2023-04-28T03:18:27.422Z,100513.40
2023-04-28T03:20:00.045Z,100515.20
2023-04-28T03:21:32.305Z,100514.20
2023-04-28T03:23:04.435Z,100514.20
2023-04-28T03:24:36.108Z,100511.40
2023-04-28T03:26:08.079Z,100508.20
2023-04-28T03:27:39.950Z,100507.60
2023-04-28T03:29:11.633Z,100504.40
2023-04-28T03:30:43.510Z,100505.40
2023-04-28T03:32:15.255Z,100504.00
2023-04-28T03:33:47.179Z,100497.00
2023-04-28T03:35:19.626Z,100493.60
2023-04-28T03:36:51.684Z,100485.80
2023-04-28T03:38:28.778Z,100483.60
2023-04-28T03:40:00.498Z,100479.40
2023-04-28T03:41:32.748Z,100478.40
2023-04-28T03:43:35.470Z,100482.40
2023-04-28T03:45:14.608Z,100485.80
2023-04-28T03:46:46.342Z,100481.00
2023-04-28T03:48:18.132Z,100480.40
2023-04-28T03:49:50.303Z,100477.60
2023-04-28T03:51:22.033Z,100477.20
2023-04-28T03:52:53.977Z,100475.80
2023-04-28T03:54:26.002Z,100464.80
2023-04-28T03:55:57.826Z,100461.80
2023-04-28T03:57:29.637Z,100454.80
2023-04-28T03:59:01.489Z,100454.60
2023-04-28T04:00:33.226Z,100453.40
2023-04-28T04:02:05.047Z,100454.40
2023-04-28T04:03:37.051Z,100451.60
2023-04-28T04:05:09.245Z,100448.20
2023-04-28T04:06:41.286Z,100443.00
2023-04-28T04:08:13.657Z,100446.00
2023-04-28T04:09:45.670Z,100444.00
2023-04-28T04:11:17.444Z,100445.60
2023-04-28T04:12:49.156Z,100444.60
2023-04-28T04:14:20.868Z,100440.80
2023-04-28T04:15:54.344Z,100431.20
2023-04-28T04:17:26.954Z,100431.00
2023-04-28T04:18:58.770Z,100428.80
2023-04-28T04:20:58.632Z,100426.60
2023-04-28T04:22:30.482Z,100421.40
2023-04-28T04:24:02.210Z,100424.80
2023-04-28T04:25:34.953Z,100421.20
2023-04-28T04:27:07.999Z,100419.00
2023-04-28T04:28:42.505Z,100419.80
2023-04-28T04:30:14.974Z,100420.60
2023-04-28T04:31:47.494Z,100421.60
2023-04-28T04:33:19.348Z,100418.80
2023-04-28T04:34:51.186Z,100418.80
2023-04-28T04:36:23.044Z,100416.60
2023-04-28T04:37:55.513Z,100410.00
2023-04-28T04:39:27.279Z,100406.20
2023-04-28T04:40:58.993Z,100409.00
2023-04-28T04:42:30.729Z,100415.80
2023-04-28T04:44:23.059Z,100417.00
2023-04-28T04:45:55.336Z,100423.00
2023-04-28T04:47:28.268Z,100421.40
2023-04-28T04:49:00.049Z,100423.60
2023-04-28T04:50:31.928Z,100426.80
2023-04-28T04:52:04.021Z,100430.60
2023-04-28T04:53:36.217Z,100428.20
2023-04-28T04:55:11.057Z,100430.20
2023-04-28T04:56:43.572Z,100428.40
2023-04-28T04:58:16.425Z,100427.20
2023-04-28T05:00:13.571Z,100429.60
2023-04-28T05:01:46.965Z,100427.20
2023-04-28T05:03:18.830Z,100427.20
2023-04-28T05:04:50.812Z,100427.40
2023-04-28T05:06:22.708Z,100431.40
2023-04-28T05:07:54.503Z,100434.80
2023-04-28T05:09:26.807Z,100432.60
2023-04-28T05:10:58.743Z,100435.80
2023-04-28T05:12:30.456Z,100438.60
2023-04-28T05:14:02.186Z,100433.00
2023-04-28T05:15:34.113Z,100426.40
2023-04-28T05:17:24.343Z,100428.20
2023-04-28T05:18:56.351Z,100422.20
2023-04-28T05:20:28.082Z,100426.80
2023-04-28T05:22:01.170Z,100425.80
2023-04-28T05:23:32.956Z,100420.20
2023-04-28T05:25:05.494Z,100419.60
2023-04-28T05:26:41.248Z,100411.60
2023-04-28T05:28:14.492Z,100408.80
2023-04-28T05:29:47.070Z,100404.60
2023-04-28T05:31:19.339Z,100403.40
2023-04-28T05:32:51.451Z,100399.80
2023-04-28T05:34:23.402Z,100400.00
2023-04-28T05:35:55.595Z,100397.00
2023-04-28T05:37:27.581Z,100399.60
2023-04-28T05:39:00.481Z,100400.60
2023-04-28T05:40:32.872Z,100401.20
2023-04-28T05:42:05.679Z,100400.60
2023-04-28T05:43:37.468Z,100397.80
2023-04-28T05:45:10.342Z,100396.60
2023-04-28T05:46:42.473Z,100394.00
2023-04-28T05:48:14.301Z,100395.40
2023-04-28T05:49:46.176Z,100389.60
2023-04-28T05:51:17.865Z,100385.60
2023-04-28T05:52:50.140Z,100380.80
2023-04-28T05:54:21.839Z,100380.00
2023-04-28T05:55:54.640Z,100380.40
2023-04-28T05:57:26.698Z,100378.80
2023-04-28T05:58:59.116Z,100378.60
2023-04-28T06:00:31.392Z,100375.60
2023-04-28T06:02:03.820Z,100367.80
2023-04-28T06:03:35.625Z,100368.80
2023-04-28T06:05:09.033Z,100368.80
2023-04-28T06:06:41.689Z,100377.60
2023-04-28T06:08:13.486Z,100375.20
2023-04-28T06:09:45.194Z,100378.80
2023-04-28T06:11:19.219Z,100376.80
2023-04-28T06:12:51.040Z,100378.40
2023-04-28T06:14:23.569Z,100374.80
2023-04-28T06:15:55.504Z,100375.40
2023-04-28T06:17:27.435Z,100377.40
2023-04-28T06:19:00.151Z,100378.80
2023-04-28T06:20:32.577Z,100377.40
2023-04-28T06:22:04.293Z,100374.40
2023-04-28T06:23:36.267Z,100376.80
2023-04-28T06:25:08.826Z,100375.00
2023-04-28T06:26:48.807Z,100372.00
2023-04-28T06:28:20.519Z,100370.20
2023-04-28T06:29:52.217Z,100373.80
2023-04-28T06:31:23.954Z,100370.40
2023-04-28T06:32:57.834Z,100367.60
2023-04-28T06:34:30.996Z,100365.20
2023-04-28T06:36:03.872Z,100359.40
2023-04-28T06:37:35.990Z,100355.40
2023-04-28T06:39:08.234Z,100356.80
2023-04-28T06:40:40.844Z,100359.20
2023-04-28T06:42:13.109Z,100358.20
2023-04-28T06:43:47.577Z,100362.60
2023-04-28T06:45:23.870Z,100357.40
2023-04-28T06:46:55.778Z,100355.80
2023-04-28T06:48:27.604Z,100348.80
2023-04-28T06:49:59.290Z,100345.80
2023-04-28T06:51:34.484Z,100347.80
2023-04-28T06:53:07.527Z,100348.60
2023-04-28T06:54:39.182Z,100358.40
2023-04-28T06:56:14.313Z,100356.00
2023-04-28T06:57:46.317Z,100351.80
2023-04-28T06:59:18.040Z,100349.40
2023-04-28T07:00:49.810Z,100349.60
2023-04-28T07:02:21.571Z,100349.00
2023-04-28T07:03:53.449Z,100350.80
2023-04-28T07:05:25.209Z,100342.60
2023-04-28T07:06:57.178Z,100343.60
2023-04-28T07:08:30.659Z,100341.40
2023-04-28T07:10:02.722Z,100336.60
2023-04-28T07:11:34.391Z,100334.00
2023-04-28T07:13:06.359Z,100334.80
2023-04-28T07:14:38.028Z,100336.00
2023-04-28T07:16:11.093Z,100334.20
2023-04-28T07:17:42.951Z,100338.40
2023-04-28T07:19:14.669Z,100337.80
2023-04-28T07:20:46.712Z,100334.60
2023-04-28T07:22:18.588Z,100335.80
2023-04-28T07:23:50.335Z,100329.60
2023-04-28T07:25:22.154Z,100326.40
2023-04-28T07:26:53.905Z,100322.80
2023-04-28T07:28:25.746Z,100322.80
2023-04-28T07:29:57.689Z,100335.80
2023-04-28T07:31:29.655Z,100342.80
2023-04-28T07:33:02.770Z,100340.20
2023-04-28T07:34:38.211Z,100342.80
2023-04-28T07:36:10.410Z,100350.20
2023-04-28T07:37:42.927Z,100346.00
2023-04-28T07:39:15.232Z,100344.80
2023-04-28T07:40:47.608Z,100338.60
2023-04-28T07:42:19.365Z,100338.00
2023-04-28T07:43:51.088Z,100344.40
2023-04-28T07:45:22.931Z,100346.80
2023-04-28T07:46:54.741Z,100342.80
2023-04-28T07:48:27.336Z,100340.60
2023-04-28T07:50:00.899Z,100340.20
2023-04-28T07:51:32.642Z,100344.00
2023-04-28T07:53:04.438Z,100348.20
2023-04-28T07:54:37.176Z,100353.40
2023-04-28T07:56:09.136Z,100345.20
2023-04-28T07:57:42.299Z,100347.60
2023-04-28T07:59:14.670Z,100348.60
2023-04-28T08:00:46.623Z,100347.60
2023-04-28T08:02:20.361Z,100351.20
2023-04-28T08:03:52.307Z,100348.20
2023-04-28T08:05:24.549Z,100349.20
2023-04-28T08:06:56.389Z,100343.20
2023-04-28T08:08:28.227Z,100341.80
2023-04-28T08:10:01.192Z,100340.40
2023-04-28T08:11:33.580Z,100343.00
2023-04-28T08:13:05.322Z,100347.20
2023-04-28T08:14:37.184Z,100345.20
2023-04-28T08:16:09.516Z,100346.20
2023-04-28T08:17:41.508Z,100345.00
2023-04-28T08:19:13.310Z,100340.40
2023-04-28T08:20:45.001Z,100343.00
2023-04-28T08:22:16.802Z,100338.60
2023-04-28T08:23:48.569Z,100341.00
2023-04-28T08:25:20.739Z,100344.80
2023-04-28T08:26:52.476Z,100341.80
2023-04-28T08:28:24.334Z,100338.40
2023-04-28T08:29:56.068Z,100339.40
2023-04-28T08:31:28.043Z,100334.80
2023-04-28T08:32:59.810Z,100336.80
2023-04-28T08:34:31.565Z,100334.00
2023-04-28T08:36:03.775Z,100335.80
2023-04-28T08:37:35.894Z,100332.20
2023-04-28T08:39:08.598Z,100333.80
2023-04-28T08:40:42.894Z,100331.00
2023-04-28T08:42:15.064Z,100330.40
2023-04-28T08:43:46.793Z,100325.80
2023-04-28T08:45:18.563Z,100323.80
2023-04-28T08:46:58.013Z,100320.40
2023-04-28T08:48:40.359Z,100328.00
2023-04-28T08:50:14.225Z,100323.00
2023-04-28T08:52:16.741Z,100315.40
2023-04-28T08:55:28.994Z,100313.00
2023-04-28T08:57:01.209Z,100314.20
2023-04-28T08:58:37.078Z,100312.80
2023-04-28T09:00:09.625Z,100309.20
2023-04-28T09:01:41.483Z,100310.80
2023-04-28T09:03:13.725Z,100309.40
2023-04-28T09:04:47.709Z,100313.00
2023-04-28T09:06:19.649Z,100308.60
2023-04-28T09:07:52.119Z,100314.00
2023-04-28T09:09:32.619Z,100311.40
2023-04-28T09:11:11.175Z,100315.00
2023-04-28T09:12:42.876Z,100311.20
2023-04-28T09:14:14.805Z,100311.20
2023-04-28T09:15:46.735Z,100310.20
2023-04-28T09:17:18.444Z,100308.20
2023-04-28T09:18:58.942Z,100305.60
2023-04-28T09:20:33.873Z,100302.00
2023-04-28T09:22:24.086Z,100293.40
2023-04-28T09:23:56.949Z,100296.60
2023-04-28T09:25:28.706Z,100298.40
2023-04-28T09:27:02.612Z,100294.60
2023-04-28T09:28:36.370Z,100293.60
2023-04-28T09:30:10.059Z,100299.00
2023-04-28T09:31:43.546Z,100300.00
2023-04-28T09:33:16.209Z,100307.40
2023-04-28T09:34:51.481Z,100304.00
2023-04-28T09:36:29.629Z,100308.00
2023-04-28T09:38:01.685Z,100308.60
2023-04-28T09:39:33.535Z,100309.40
2023-04-28T09:41:05.540Z,100309.40
2023-04-28T09:42:47.903Z,100309.80
2023-04-28T09:44:21.523Z,100318.00
2023-04-28T09:45:54.328Z,100323.00
2023-04-28T09:47:26.126Z,100315.80
2023-04-28T09:49:02.799Z,100320.20
2023-04-28T09:50:41.579Z,100321.00
2023-04-28T09:52:13.851Z,100323.80
2023-04-28T09:53:46.396Z,100327.60
2023-04-28T09:55:20.324Z,100324.60
2023-04-28T09:56:52.630Z,100325.20
2023-04-28T09:58:26.838Z,100315.40
2023-04-28T09:59:59.977Z,100318.00
2023-04-28T10:01:41.046Z,100316.40
2023-04-28T10:03:15.665Z,100312.00
2023-04-28T10:04:50.615Z,100313.80
2023-04-28T10:06:22.958Z,100312.40
2023-04-28T10:07:56.079Z,100305.60
2023-04-28T10:09:28.899Z,100304.60
2023-04-28T10:11:02.092Z,100304.20
2023-04-28T10:12:34.941Z,100305.80
2023-04-28T10:14:07.063Z,100300.00
2023-04-28T10:15:39.519Z,100296.60
2023-04-28T10:17:14.678Z,100296.60
2023-04-28T10:18:46.835Z,100300.80
2023-04-28T10:20:19.150Z,100303.40
2023-04-28T10:22:24.465Z,100301.40
2023-04-28T10:24:18.225Z,100299.20
2023-04-28T10:25:58.173Z,100303.20
2023-04-28T10:27:31.567Z,100302.00
2023-04-28T10:29:03.824Z,100302.20
2023-04-28T10:30:37.585Z,100298.40
2023-04-28T10:32:23.431Z,100297.20
2023-04-28T10:33:55.381Z,100290.00
2023-04-28T10:35:33.288Z,100289.00
2023-04-28T10:37:05.025Z,100291.60
2023-04-28T10:39:11.253Z,100294.40
2023-04-28T10:40:46.398Z,100293.20
2023-04-28T10:42:52.442Z,100293.60
2023-04-28T10:44:44.725Z,100296.80
2023-04-28T10:46:16.466Z,100296.20
2023-04-28T10:48:06.131Z,100297.60
2023-04-28T10:49:58.725Z,100293.80
2023-04-28T10:51:31.945Z,100291.80
2023-04-28T10:53:04.257Z,100295.00
2023-04-28T10:54:36.362Z,100292.80
2023-04-28T10:56:08.601Z,100293.00
2023-04-28T10:57:40.335Z,100292.60
2023-04-28T10:59:28.376Z,100294.00
2023-04-28T11:01:21.636Z,100293.60
2023-04-28T11:02:54.468Z,100295.60
2023-04-28T11:04:26.665Z,100295.20
2023-04-28T11:06:26.804Z,100295.40
2023-04-28T11:08:26.043Z,100296.00
2023-04-28T11:09:57.836Z,100295.20
2023-04-28T11:11:36.111Z,100294.00
2023-04-28T11:13:34.413Z,100300.00
2023-04-28T11:15:13.296Z,100300.80
2023-04-28T11:17:03.446Z,100298.80
2023-04-28T11:18:55.062Z,100300.40
2023-04-28T11:20:29.015Z,100300.80
2023-04-28T11:22:16.104Z,100295.40
2023-04-28T11:23:48.399Z,100296.60
2023-04-28T11:25:20.186Z,100293.20
2023-04-28T11:26:54.797Z,100298.40
2023-04-28T11:28:26.717Z,100302.00
2023-04-28T11:29:59.806Z,100300.40
2023-04-28T11:31:32.122Z,100297.80
2023-04-28T11:33:04.787Z,100291.20
2023-04-28T11:34:37.576Z,100296.60
2023-04-28T11:36:24.634Z,100300.20
2023-04-28T11:38:06.167Z,100297.80
2023-04-28T11:39:37.860Z,100301.00
2023-04-28T11:41:09.928Z,100303.80
2023-04-28T11:42:49.273Z,100303.80
2023-04-28T11:44:24.930Z,100302.60
2023-04-28T11:45:57.436Z,100300.80
2023-04-28T11:47:34.627Z,100304.20
2023-04-28T11:49:06.897Z,100304.40
2023-04-28T11:50:39.056Z,100299.80
2023-04-28T11:52:12.010Z,100306.20
2023-04-28T11:53:45.132Z,100305.00
2023-04-28T11:55:17.574Z,100305.80
2023-04-28T11:56:49.871Z,100307.60
2023-04-28T11:58:27.884Z,100299.40
2023-04-28T12:00:21.766Z,100300.20
2023-04-28T12:02:02.804Z,100309.20
2023-04-28T12:03:46.501Z,100304.00
2023-04-28T12:05:20.643Z,100311.80
2023-04-28T12:07:07.142Z,100312.00
2023-04-28T12:08:38.961Z,100311.00
2023-04-28T12:10:14.321Z,100304.00
2023-04-28T12:11:54.855Z,100309.00
2023-04-28T12:13:26.678Z,100309.40
2023-04-28T12:15:07.191Z,100307.20
2023-04-28T12:16:44.939Z,100310.00
2023-04-28T12:18:19.420Z,100302.80
2023-04-28T12:19:51.237Z,100302.60
2023-04-28T12:21:23.009Z,100303.40
2023-04-28T12:22:54.725Z,100305.20
2023-04-28T12:24:27.016Z,100305.00
2023-04-28T12:26:00.072Z,100304.00
2023-04-28T12:27:32.203Z,100304.40
2023-04-28T12:29:04.407Z,100304.00
2023-04-28T12:30:44.159Z,100306.20
2023-04-28T12:32:16.101Z,100307.80
2023-04-28T12:33:48.063Z,100307.20
2023-04-28T12:35:25.756Z,100305.60
2023-04-28T12:36:57.684Z,100301.80
2023-04-28T12:38:30.488Z,100298.80
2023-04-28T12:40:02.681Z,100300.20
2023-04-28T12:41:34.372Z,100303.40
2023-04-28T12:43:06.060Z,100306.60
2023-04-28T12:44:38.569Z,100302.80
2023-04-28T12:46:12.541Z,100305.80
2023-04-28T12:47:44.341Z,100309.20
2023-04-28T12:49:16.427Z,100307.80
2023-04-28T12:50:48.301Z,100305.20
2023-04-28T12:52:21.073Z,100303.40
2023-04-28T12:53:52.824Z,100304.40
2023-04-28T12:55:24.985Z,100302.80
2023-04-28T12:56:57.093Z,100307.80
2023-04-28T12:58:28.793Z,100303.80
2023-04-28T13:00:00.517Z,100301.40
2023-04-28T13:01:32.484Z,100298.00
2023-04-28T13:03:04.416Z,100302.40
2023-04-28T13:04:36.894Z,100306.20
2023-04-28T13:06:10.539Z,100306.20
2023-04-28T13:07:44.109Z,100306.20
2023-04-28T13:09:16.822Z,100303.60
2023-04-28T13:10:48.633Z,100300.60
2023-04-28T13:12:20.544Z,100296.80
2023-04-28T13:13:53.287Z,100285.80
2023-04-28T13:15:24.968Z,100271.40
2023-04-28T13:16:58.049Z,100261.60
2023-04-28T13:18:30.094Z,100265.00
2023-04-28T13:20:04.104Z,100265.80
2023-04-28T13:21:38.894Z,100258.00
2023-04-28T13:23:10.847Z,100259.60
2023-04-28T13:24:43.124Z,100259.00
2023-04-28T13:26:14.935Z,100254.40
2023-04-28T13:27:47.494Z,100255.80
2023-04-28T13:29:19.445Z,100257.60
2023-04-28T13:30:51.343Z,100264.40
2023-04-28T13:32:23.244Z,100264.00
2023-04-28T13:33:54.998Z,100266.00
2023-04-28T13:35:27.232Z,100261.60
2023-04-28T13:36:59.194Z,100262.60
2023-04-28T13:38:30.953Z,100265.60
2023-04-28T13:40:04.411Z,100262.80
2023-04-28T13:41:36.855Z,100260.60
2023-04-28T13:43:08.561Z,100247.00
2023-04-28T13:44:40.497Z,100248.80
2023-04-28T13:46:12.440Z,100250.20
2023-04-28T13:47:44.554Z,100247.20
2023-04-28T13:49:16.661Z,100244.00
2023-04-28T13:50:48.424Z,100240.20
2023-04-28T13:52:20.481Z,100236.60
2023-04-28T13:53:52.166Z,100230.80
2023-04-28T13:55:27.928Z,100230.00
2023-04-28T13:56:59.747Z,100226.20
2023-04-28T13:58:31.843Z,100224.80
2023-04-28T14:00:05.294Z,100224.20
2023-04-28T14:01:39.174Z,100229.40
2023-04-28T14:03:11.514Z,100231.20
2023-04-28T14:04:48.642Z,100227.80
2023-04-28T14:06:21.409Z,100225.20
2023-04-28T14:07:56.877Z,100228.80
2023-04-28T14:09:28.630Z,100223.60
2023-04-28T14:11:01.331Z,100226.80
2023-04-28T14:12:33.093Z,100222.40
2023-04-28T14:14:05.041Z,100225.80
2023-04-28T14:15:38.615Z,100225.80
2023-04-28T14:17:12.534Z,100221.60
2023-04-28T14:18:44.569Z,100221.80
2023-04-28T14:20:16.482Z,100217.20
2023-04-28T14:21:48.608Z,100216.60
2023-04-28T14:23:21.270Z,100217.80
2023-04-28T14:24:53.491Z,100216.60
2023-04-28T14:26:25.594Z,100214.20
2023-04-28T14:27:57.985Z,100214.60
2023-04-28T14:29:29.678Z,100218.80
2023-04-28T14:31:06.337Z,100219.40
2023-04-28T14:32:39.942Z,100219.80
2023-04-28T14:34:11.932Z,100215.80
2023-04-28T14:35:43.855Z,100220.80
2023-04-28T14:37:16.297Z,100217.20
2023-04-28T14:38:48.083Z,100215.40
2023-04-28T14:40:20.110Z,100211.60
2023-04-28T14:41:51.890Z,100209.20
2023-04-28T14:43:24.136Z,100216.80
2023-04-28T14:44:55.814Z,100214.80
2023-04-28T14:46:27.602Z,100213.60
2023-04-28T14:47:59.843Z,100212.00
2023-04-28T14:49:31.853Z,100208.00
2023-04-28T14:51:03.810Z,100212.80
2023-04-28T14:52:36.284Z,100210.40
2023-04-28T14:54:09.798Z,100216.60
2023-04-28T14:55:41.697Z,100216.40
2023-04-28T14:57:13.450Z,100212.00
2023-04-28T14:58:45.265Z,100207.20
2023-04-28T15:00:17.649Z,100210.00
2023-04-28T15:01:51.577Z,100215.00
2023-04-28T15:03:23.550Z,100221.00
2023-04-28T15:04:57.535Z,100219.80
2023-04-28T15:06:29.921Z,100221.60
2023-04-28T15:08:01.734Z,100221.40
2023-04-28T15:09:33.895Z,100223.40
2023-04-28T15:11:05.922Z,100219.80
2023-04-28T15:12:37.712Z,100217.00
2023-04-28T15:14:09.398Z,100219.00
2023-04-28T15:15:41.227Z,100220.20
2023-04-28T15:17:12.961Z,100215.40
2023-04-28T15:18:45.948Z,100219.20
2023-04-28T15:20:17.705Z,100222.60
2023-04-28T15:21:49.907Z,100225.40
2023-04-28T15:23:22.233Z,100229.00
2023-04-28T15:24:55.325Z,100225.00
2023-04-28T15:26:30.132Z,100220.60
2023-04-28T15:28:03.931Z,100218.20
2023-04-28T15:29:35.628Z,100221.00
2023-04-28T15:31:07.579Z,100227.60
2023-04-28T15:32:39.369Z,100231.20
2023-04-28T15:34:11.208Z,100232.40
2023-04-28T15:35:43.946Z,100237.20
2023-04-28T15:37:38.772Z,100238.60
2023-04-28T15:39:10.972Z,100235.60
2023-04-28T15:40:44.390Z,100238.80
2023-04-28T15:42:16.468Z,100247.40
2023-04-28T15:43:50.041Z,100248.80
2023-04-28T15:45:22.592Z,100255.40
2023-04-28T15:46:55.496Z,100263.80
2023-04-28T15:48:27.530Z,100264.60
2023-04-28T15:49:59.784Z,100271.60
2023-04-28T15:51:31.610Z,100264.00
2023-04-28T15:53:03.736Z,100274.20
2023-04-28T15:54:35.899Z,100273.00
2023-04-28T15:56:08.803Z,100285.40
2023-04-28T15:57:41.178Z,100283.60
2023-04-28T15:59:15.945Z,100281.00
2023-04-28T16:00:48.403Z,100292.80
2023-04-28T16:02:22.381Z,100287.40
2023-04-28T16:03:54.747Z,100287.80
2023-04-28T16:05:27.236Z,100294.20
2023-04-28T16:07:02.322Z,100297.00
2023-04-28T16:08:35.764Z,100288.40
2023-04-28T16:10:12.872Z,100290.80
2023-04-28T16:11:45.143Z,100296.40
2023-04-28T16:13:17.262Z,100287.60
2023-04-28T16:14:50.688Z,100294.40
2023-04-28T16:16:23.252Z,100292.80
2023-04-28T16:17:56.863Z,100295.60
2023-04-28T16:19:29.013Z,100300.20
2023-04-28T16:21:01.290Z,100304.60
2023-04-28T16:22:33.976Z,100313.00
2023-04-28T16:24:05.982Z,100308.60
2023-04-28T16:25:38.586Z,100309.40
2023-04-28T16:27:11.571Z,100304.80
2023-04-28T16:28:43.685Z,100307.80
2023-04-28T16:30:15.740Z,100303.80
2023-04-28T16:31:47.494Z,100307.00
2023-04-28T16:33:19.220Z,100308.80
2023-04-28T16:34:51.276Z,100308.00
2023-04-28T16:36:23.138Z,100316.40
2023-04-28T16:37:54.807Z,100305.60
2023-04-28T16:39:26.981Z,100306.00
2023-04-28T16:40:58.833Z,100300.40
2023-04-28T16:42:30.546Z,100306.40
2023-04-28T16:44:02.268Z,100300.60
2023-04-28T16:45:34.056Z,100303.20
2023-04-28T16:47:05.952Z,100304.40
2023-04-28T16:48:38.245Z,100307.20
2023-04-28T16:50:11.733Z,100310.60
2023-04-28T16:51:59.832Z,100310.40
2023-04-28T16:53:32.020Z,100309.60
2023-04-28T16:55:05.144Z,100321.20
2023-04-28T16:56:38.981Z,100309.40
2023-04-28T16:58:10.837Z,100307.20
2023-04-28T16:59:42.540Z,100310.00
2023-04-28T17:01:14.331Z,100316.80
2023-04-28T17:02:46.889Z,100316.20
2023-04-28T17:04:18.972Z,100317.00
2023-04-28T17:05:51.207Z,100314.60
2023-04-28T17:07:25.009Z,100316.80
2023-04-28T17:08:59.004Z,100323.20
2023-04-28T17:10:30.823Z,100322.60
2023-04-28T17:12:03.660Z,100322.20
2023-04-28T17:13:36.213Z,100330.20
2023-04-28T17:15:08.550Z,100327.40
2023-04-28T17:16:41.465Z,100328.20
2023-04-28T17:18:14.067Z,100336.20
2023-04-28T17:19:46.188Z,100325.20
2023-04-28T17:21:17.997Z,100328.20
2023-04-28T17:22:50.472Z,100333.00
2023-04-28T17:24:23.984Z,100332.40
2023-04-28T17:25:56.498Z,100334.40
2023-04-28T17:27:28.190Z,100336.20
2023-04-28T17:29:00.354Z,100342.20
2023-04-28T17:30:32.734Z,100342.40
2023-04-28T17:32:04.729Z,100343.40
2023-04-28T17:33:37.395Z,100350.00
2023-04-28T17:35:09.344Z,100345.40
2023-04-28T17:36:42.131Z,100350.60
2023-04-28T17:38:13.867Z,100352.00
2023-04-28T17:39:45.839Z,100356.20
2023-04-28T17:41:17.697Z,100350.00
2023-04-28T17:42:58.769Z,100353.60
2023-04-28T17:44:30.974Z,100358.20
2023-04-28T17:46:02.771Z,100360.60
2023-04-28T17:47:34.527Z,100358.60
2023-04-28T17:49:06.649Z,100363.40
2023-04-28T17:50:39.143Z,100359.60
2023-04-28T17:52:11.172Z,100356.20
2023-04-28T17:53:43.273Z,100358.00